sensor_id;sensor_type;location;lat;lon;timestamp;P1;durP1;ratioP1;P2;durP2;ratioP2
53977;SDS011;39886;47.984;-1.586;2023-07-13T00:02:17;1.48;;;0.80;;
53977;SDS011;39886;47.984;-1.586;2023-07-13T00:04:43;1.80;;;0.70;;
53977;SDS011;39886;47.984;-1.586;2023-07-13T00:07:09;1.40;;;0.75;;
53977;SDS011;39886;47.984;-1.586;2023-07-13T00:09:35;1.83;;;0.70;;
53977;SDS011;39886;47.984;-1.586;2023-07-13T00:12:02;1.27;;;0.75;;
53977;SDS011;39886;47.984;-1.586;2023-07-13T00:14:28;2.00;;;0.88;;
53977;SDS011;39886;47.984;-1.586;2023-07-13T00:16:55;1.35;;;0.90;;
53977;SDS011;39886;47.984;-1.586;2023-07-13T00:19:21;0.90;;;0.80;;
53977;SDS011;39886;47.984;-1.586;2023-07-13T00:21:47;1.55;;;0.70;;
53977;SDS011;39886;47.984;-1.586;2023-07-13T00:24:15;0.75;;;0.70;;
53977;SDS011;39886;47.984;-1.586;2023-07-13T00:26:47;0.80;;;0.63;;
53977;SDS011;39886;47.984;-1.586;2023-07-13T00:29:13;1.48;;;0.70;;
53977;SDS011;39886;47.984;-1.586;2023-07-13T00:31:39;1.83;;;0.90;;
53977;SDS011;39886;47.984;-1.586;2023-07-13T00:34:05;1.20;;;0.93;;
53977;SDS011;39886;47.984;-1.586;2023-07-13T00:36:31;0.68;;;0.57;;
53977;SDS011;39886;47.984;-1.586;2023-07-13T00:38:57;0.90;;;0.90;;
53977;SDS011;39886;47.984;-1.586;2023-07-13T00:41:23;1.15;;;0.80;;
53977;SDS011;39886;47.984;-1.586;2023-07-13T00:43:49;0.98;;;0.88;;
53977;SDS011;39886;47.984;-1.586;2023-07-13T00:46:18;0.60;;;0.60;;
53977;SDS011;39886;47.984;-1.586;2023-07-13T00:48:45;1.70;;;0.80;;
53977;SDS011;39886;47.984;-1.586;2023-07-13T00:51:12;0.93;;;0.82;;
53977;SDS011;39886;47.984;-1.586;2023-07-13T00:53:39;0.73;;;0.70;;
53977;SDS011;39886;47.984;-1.586;2023-07-13T00:56:05;1.10;;;0.70;;
53977;SDS011;39886;47.984;-1.586;2023-07-13T00:58:31;1.02;;;0.73;;
53977;SDS011;39886;47.984;-1.586;2023-07-13T01:00:58;0.65;;;0.65;;
53977;SDS011;39886;47.984;-1.586;2023-07-13T01:03:24;1.00;;;0.70;;
53977;SDS011;39886;47.984;-1.586;2023-07-13T01:05:50;1.30;;;0.80;;
53977;SDS011;39886;47.984;-1.586;2023-07-13T01:08:19;1.20;;;0.82;;
53977;SDS011;39886;47.984;-1.586;2023-07-13T01:10:54;1.15;;;0.80;;
53977;SDS011;39886;47.984;-1.586;2023-07-13T01:13:21;0.68;;;0.57;;
53977;SDS011;39886;47.984;-1.586;2023-07-13T01:15:48;1.00;;;0.70;;
53977;SDS011;39886;47.984;-1.586;2023-07-13T01:18:15;1.08;;;0.70;;
53977;SDS011;39886;47.984;-1.586;2023-07-13T01:23:18;1.45;;;0.70;;
53977;SDS011;39886;47.984;-1.586;2023-07-13T01:25:44;0.70;;;0.70;;
53977;SDS011;39886;47.984;-1.586;2023-07-13T01:28:11;0.80;;;0.80;;
53977;SDS011;39886;47.984;-1.586;2023-07-13T01:30:37;0.80;;;0.80;;
53977;SDS011;39886;47.984;-1.586;2023-07-13T01:33:05;0.90;;;0.70;;
53977;SDS011;39886;47.984;-1.586;2023-07-13T01:35:32;1.05;;;0.70;;
53977;SDS011;39886;47.984;-1.586;2023-07-13T01:37:58;1.42;;;0.90;;
53977;SDS011;39886;47.984;-1.586;2023-07-13T01:40:26;0.80;;;0.80;;
53977;SDS011;39886;47.984;-1.586;2023-07-13T01:42:52;0.98;;;0.70;;
53977;SDS011;39886;47.984;-1.586;2023-07-13T01:45:18;0.98;;;0.70;;
53977;SDS011;39886;47.984;-1.586;2023-07-13T01:47:44;0.95;;;0.80;;
53977;SDS011;39886;47.984;-1.586;2023-07-13T01:50:10;1.02;;;0.80;;
53977;SDS011;39886;47.984;-1.586;2023-07-13T01:52:36;1.40;;;0.90;;
53977;SDS011;39886;47.984;-1.586;2023-07-13T01:55:03;0.70;;;0.70;;
53977;SDS011;39886;47.984;-1.586;2023-07-13T01:57:29;1.13;;;0.80;;
53977;SDS011;39886;47.984;-1.586;2023-07-13T01:59:55;0.70;;;0.63;;
53977;SDS011;39886;47.984;-1.586;2023-07-13T02:02:21;0.95;;;0.70;;
53977;SDS011;39886;47.984;-1.586;2023-07-13T02:04:47;0.70;;;0.70;;
53977;SDS011;39886;47.984;-1.586;2023-07-13T02:07:13;0.57;;;0.57;;
53977;SDS011;39886;47.984;-1.586;2023-07-13T02:09:40;1.33;;;0.90;;
53977;SDS011;39886;47.984;-1.586;2023-07-13T02:12:07;1.52;;;0.88;;
53977;SDS011;39886;47.984;-1.586;2023-07-13T02:14:33;0.80;;;0.80;;
53977;SDS011;39886;47.984;-1.586;2023-07-13T02:16:59;0.70;;;0.70;;
53977;SDS011;39886;47.984;-1.586;2023-07-13T02:19:25;0.60;;;0.60;;
53977;SDS011;39886;47.984;-1.586;2023-07-13T02:21:51;0.80;;;0.80;;
53977;SDS011;39886;47.984;-1.586;2023-07-13T02:24:17;0.60;;;0.60;;
53977;SDS011;39886;47.984;-1.586;2023-07-13T02:26:46;1.05;;;0.77;;
53977;SDS011;39886;47.984;-1.586;2023-07-13T02:29:12;0.80;;;0.77;;
53977;SDS011;39886;47.984;-1.586;2023-07-13T02:31:38;0.80;;;0.80;;
53977;SDS011;39886;47.984;-1.586;2023-07-13T02:34:04;0.63;;;0.60;;
53977;SDS011;39886;47.984;-1.586;2023-07-13T02:36:31;0.77;;;0.77;;
53977;SDS011;39886;47.984;-1.586;2023-07-13T02:39:01;0.60;;;0.60;;
53977;SDS011;39886;47.984;-1.586;2023-07-13T02:41:27;1.00;;;0.85;;
53977;SDS011;39886;47.984;-1.586;2023-07-13T02:43:54;0.63;;;0.60;;
53977;SDS011;39886;47.984;-1.586;2023-07-13T02:46:28;0.80;;;0.80;;
53977;SDS011;39886;47.984;-1.586;2023-07-13T02:48:54;0.60;;;0.60;;
53977;SDS011;39886;47.984;-1.586;2023-07-13T02:51:20;0.63;;;0.63;;
53977;SDS011;39886;47.984;-1.586;2023-07-13T02:53:46;0.73;;;0.70;;
53977;SDS011;39886;47.984;-1.586;2023-07-13T02:56:12;0.65;;;0.60;;
53977;SDS011;39886;47.984;-1.586;2023-07-13T02:58:38;0.80;;;0.60;;
53977;SDS011;39886;47.984;-1.586;2023-07-13T03:01:09;0.60;;;0.60;;
53977;SDS011;39886;47.984;-1.586;2023-07-13T03:03:35;0.73;;;0.60;;
53977;SDS011;39886;47.984;-1.586;2023-07-13T03:06:02;1.05;;;0.77;;
53977;SDS011;39886;47.984;-1.586;2023-07-13T03:08:30;0.70;;;0.70;;
53977;SDS011;39886;47.984;-1.586;2023-07-13T03:11:00;0.93;;;0.80;;
53977;SDS011;39886;47.984;-1.586;2023-07-13T03:13:26;1.00;;;0.60;;
53977;SDS011;39886;47.984;-1.586;2023-07-13T03:15:52;1.20;;;0.60;;
53977;SDS011;39886;47.984;-1.586;2023-07-13T03:18:18;1.25;;;1.10;;
53977;SDS011;39886;47.984;-1.586;2023-07-13T03:20:44;0.50;;;0.50;;
53977;SDS011;39886;47.984;-1.586;2023-07-13T03:23:10;0.73;;;0.63;;
53977;SDS011;39886;47.984;-1.586;2023-07-13T03:25:36;1.15;;;0.68;;
53977;SDS011;39886;47.984;-1.586;2023-07-13T03:28:02;0.75;;;0.70;;
53977;SDS011;39886;47.984;-1.586;2023-07-13T03:30:30;0.55;;;0.50;;
53977;SDS011;39886;47.984;-1.586;2023-07-13T03:32:56;0.65;;;0.60;;
53977;SDS011;39886;47.984;-1.586;2023-07-13T03:35:22;0.70;;;0.70;;
53977;SDS011;39886;47.984;-1.586;2023-07-13T03:37:48;0.70;;;0.65;;
53977;SDS011;39886;47.984;-1.586;2023-07-13T03:40:16;0.80;;;0.73;;
53977;SDS011;39886;47.984;-1.586;2023-07-13T03:42:42;0.73;;;0.73;;
53977;SDS011;39886;47.984;-1.586;2023-07-13T03:45:08;0.70;;;0.70;;
53977;SDS011;39886;47.984;-1.586;2023-07-13T03:47:34;0.50;;;0.50;;
53977;SDS011;39886;47.984;-1.586;2023-07-13T03:50:00;0.68;;;0.68;;
53977;SDS011;39886;47.984;-1.586;2023-07-13T03:52:26;0.73;;;0.50;;
53977;SDS011;39886;47.984;-1.586;2023-07-13T03:54:53;0.70;;;0.70;;
53977;SDS011;39886;47.984;-1.586;2023-07-13T03:57:19;1.00;;;0.80;;
53977;SDS011;39886;47.984;-1.586;2023-07-13T03:59:45;0.90;;;0.75;;
53977;SDS011;39886;47.984;-1.586;2023-07-13T04:02:11;0.80;;;0.63;;
53977;SDS011;39886;47.984;-1.586;2023-07-13T04:04:37;0.77;;;0.70;;
53977;SDS011;39886;47.984;-1.586;2023-07-13T04:07:06;0.52;;;0.52;;
53977;SDS011;39886;47.984;-1.586;2023-07-13T04:09:33;0.85;;;0.70;;
53977;SDS011;39886;47.984;-1.586;2023-07-13T04:11:59;0.52;;;0.52;;
53977;SDS011;39886;47.984;-1.586;2023-07-13T04:14:25;0.50;;;0.50;;
53977;SDS011;39886;47.984;-1.586;2023-07-13T04:16:51;0.82;;;0.60;;
53977;SDS011;39886;47.984;-1.586;2023-07-13T04:19:19;0.75;;;0.75;;
53977;SDS011;39886;47.984;-1.586;2023-07-13T04:21:46;0.55;;;0.52;;
53977;SDS011;39886;47.984;-1.586;2023-07-13T04:24:12;0.60;;;0.60;;
53977;SDS011;39886;47.984;-1.586;2023-07-13T04:26:38;0.80;;;0.80;;
53977;SDS011;39886;47.984;-1.586;2023-07-13T04:29:05;0.55;;;0.55;;
53977;SDS011;39886;47.984;-1.586;2023-07-13T04:31:31;0.75;;;0.50;;
53977;SDS011;39886;47.984;-1.586;2023-07-13T04:33:58;0.70;;;0.70;;
53977;SDS011;39886;47.984;-1.586;2023-07-13T04:36:24;0.98;;;0.70;;
53977;SDS011;39886;47.984;-1.586;2023-07-13T04:38:53;0.50;;;0.50;;
53977;SDS011;39886;47.984;-1.586;2023-07-13T04:41:20;0.50;;;0.50;;
53977;SDS011;39886;47.984;-1.586;2023-07-13T04:43:47;0.80;;;0.75;;
53977;SDS011;39886;47.984;-1.586;2023-07-13T04:46:13;0.57;;;0.50;;
53977;SDS011;39886;47.984;-1.586;2023-07-13T04:48:40;1.33;;;0.60;;
53977;SDS011;39886;47.984;-1.586;2023-07-13T04:51:06;0.60;;;0.60;;
53977;SDS011;39886;47.984;-1.586;2023-07-13T04:53:33;2.00;;;0.70;;
53977;SDS011;39886;47.984;-1.586;2023-07-13T04:55:59;0.55;;;0.55;;
53977;SDS011;39886;47.984;-1.586;2023-07-13T04:58:26;0.85;;;0.60;;
53977;SDS011;39886;47.984;-1.586;2023-07-13T05:00:53;0.98;;;0.77;;
53977;SDS011;39886;47.984;-1.586;2023-07-13T05:03:19;0.60;;;0.60;;
53977;SDS011;39886;47.984;-1.586;2023-07-13T05:05:54;1.30;;;0.82;;
53977;SDS011;39886;47.984;-1.586;2023-07-13T05:08:20;1.15;;;0.70;;
53977;SDS011;39886;47.984;-1.586;2023-07-13T05:10:46;0.55;;;0.55;;
53977;SDS011;39886;47.984;-1.586;2023-07-13T05:13:12;0.60;;;0.60;;
53977;SDS011;39886;47.984;-1.586;2023-07-13T05:15:38;1.55;;;0.60;;
53977;SDS011;39886;47.984;-1.586;2023-07-13T05:18:05;0.50;;;0.50;;
53977;SDS011;39886;47.984;-1.586;2023-07-13T05:20:31;0.60;;;0.60;;
53977;SDS011;39886;47.984;-1.586;2023-07-13T05:22:57;0.55;;;0.55;;
53977;SDS011;39886;47.984;-1.586;2023-07-13T05:25:23;0.68;;;0.63;;
53977;SDS011;39886;47.984;-1.586;2023-07-13T05:27:49;0.50;;;0.50;;
53977;SDS011;39886;47.984;-1.586;2023-07-13T05:30:15;0.68;;;0.68;;
53977;SDS011;39886;47.984;-1.586;2023-07-13T05:32:41;0.70;;;0.70;;
53977;SDS011;39886;47.984;-1.586;2023-07-13T05:35:08;0.65;;;0.60;;
53977;SDS011;39886;47.984;-1.586;2023-07-13T05:37:34;0.57;;;0.57;;
53977;SDS011;39886;47.984;-1.586;2023-07-13T05:40:00;0.40;;;0.40;;
53977;SDS011;39886;47.984;-1.586;2023-07-13T05:42:26;1.23;;;0.90;;
53977;SDS011;39886;47.984;-1.586;2023-07-13T05:44:52;0.60;;;0.60;;
53977;SDS011;39886;47.984;-1.586;2023-07-13T05:47:18;0.63;;;0.63;;
53977;SDS011;39886;47.984;-1.586;2023-07-13T05:49:44;0.90;;;0.90;;
53977;SDS011;39886;47.984;-1.586;2023-07-13T05:52:10;0.70;;;0.70;;
53977;SDS011;39886;47.984;-1.586;2023-07-13T05:54:36;0.60;;;0.60;;
53977;SDS011;39886;47.984;-1.586;2023-07-13T05:57:02;0.82;;;0.70;;
53977;SDS011;39886;47.984;-1.586;2023-07-13T05:59:28;0.50;;;0.50;;
53977;SDS011;39886;47.984;-1.586;2023-07-13T06:01:54;1.13;;;0.60;;
53977;SDS011;39886;47.984;-1.586;2023-07-13T06:04:20;0.50;;;0.50;;
53977;SDS011;39886;47.984;-1.586;2023-07-13T06:06:47;0.63;;;0.63;;
53977;SDS011;39886;47.984;-1.586;2023-07-13T06:09:13;1.75;;;0.80;;
53977;SDS011;39886;47.984;-1.586;2023-07-13T06:11:39;0.68;;;0.63;;
53977;SDS011;39886;47.984;-1.586;2023-07-13T06:14:05;0.50;;;0.50;;
53977;SDS011;39886;47.984;-1.586;2023-07-13T06:16:31;1.90;;;0.80;;
53977;SDS011;39886;47.984;-1.586;2023-07-13T06:18:57;0.75;;;0.70;;
53977;SDS011;39886;47.984;-1.586;2023-07-13T06:21:23;1.75;;;0.80;;
53977;SDS011;39886;47.984;-1.586;2023-07-13T06:23:50;2.47;;;1.00;;
53977;SDS011;39886;47.984;-1.586;2023-07-13T06:26:17;2.25;;;1.20;;
53977;SDS011;39886;47.984;-1.586;2023-07-13T06:28:43;3.65;;;1.35;;
53977;SDS011;39886;47.984;-1.586;2023-07-13T06:31:10;5.00;;;1.48;;
53977;SDS011;39886;47.984;-1.586;2023-07-13T06:33:37;4.32;;;1.20;;
53977;SDS011;39886;47.984;-1.586;2023-07-13T06:36:03;5.38;;;1.55;;
53977;SDS011;39886;47.984;-1.586;2023-07-13T06:38:30;5.28;;;1.67;;
53977;SDS011;39886;47.984;-1.586;2023-07-13T06:40:56;6.90;;;1.88;;
53977;SDS011;39886;47.984;-1.586;2023-07-13T06:43:22;6.25;;;2.05;;
53977;SDS011;39886;47.984;-1.586;2023-07-13T06:45:50;8.23;;;1.60;;
53977;SDS011;39886;47.984;-1.586;2023-07-13T06:48:16;6.82;;;1.80;;
53977;SDS011;39886;47.984;-1.586;2023-07-13T06:50:43;6.18;;;1.60;;
53977;SDS011;39886;47.984;-1.586;2023-07-13T06:53:12;6.25;;;2.22;;
53977;SDS011;39886;47.984;-1.586;2023-07-13T06:55:38;7.38;;;2.05;;
53977;SDS011;39886;47.984;-1.586;2023-07-13T06:58:04;4.53;;;1.80;;
53977;SDS011;39886;47.984;-1.586;2023-07-13T07:00:31;6.63;;;2.35;;
53977;SDS011;39886;47.984;-1.586;2023-07-13T07:02:57;6.05;;;2.00;;
53977;SDS011;39886;47.984;-1.586;2023-07-13T07:05:23;6.13;;;2.00;;
53977;SDS011;39886;47.984;-1.586;2023-07-13T07:07:49;8.18;;;2.05;;
53977;SDS011;39886;47.984;-1.586;2023-07-13T07:10:16;4.72;;;1.85;;
53977;SDS011;39886;47.984;-1.586;2023-07-13T07:12:45;4.75;;;1.80;;
53977;SDS011;39886;47.984;-1.586;2023-07-13T07:15:11;4.68;;;2.08;;
53977;SDS011;39886;47.984;-1.586;2023-07-13T07:17:38;7.00;;;1.80;;
53977;SDS011;39886;47.984;-1.586;2023-07-13T07:20:04;8.82;;;2.20;;
53977;SDS011;39886;47.984;-1.586;2023-07-13T07:22:30;5.78;;;2.05;;
53977;SDS011;39886;47.984;-1.586;2023-07-13T07:24:57;3.90;;;1.75;;
53977;SDS011;39886;47.984;-1.586;2023-07-13T07:27:23;5.13;;;1.88;;
53977;SDS011;39886;47.984;-1.586;2023-07-13T07:29:50;4.70;;;2.10;;
53977;SDS011;39886;47.984;-1.586;2023-07-13T07:32:16;4.93;;;2.03;;
53977;SDS011;39886;47.984;-1.586;2023-07-13T07:34:42;9.15;;;2.47;;
53977;SDS011;39886;47.984;-1.586;2023-07-13T07:37:11;6.93;;;2.20;;
53977;SDS011;39886;47.984;-1.586;2023-07-13T07:39:38;6.18;;;2.10;;
53977;SDS011;39886;47.984;-1.586;2023-07-13T07:42:04;5.93;;;1.83;;
53977;SDS011;39886;47.984;-1.586;2023-07-13T07:44:31;5.45;;;1.83;;
53977;SDS011;39886;47.984;-1.586;2023-07-13T07:46:57;4.18;;;1.77;;
53977;SDS011;39886;47.984;-1.586;2023-07-13T07:49:24;5.22;;;1.90;;
53977;SDS011;39886;47.984;-1.586;2023-07-13T07:51:50;6.97;;;1.92;;
53977;SDS011;39886;47.984;-1.586;2023-07-13T07:54:16;9.88;;;2.47;;
53977;SDS011;39886;47.984;-1.586;2023-07-13T07:56:42;5.07;;;2.08;;
53977;SDS011;39886;47.984;-1.586;2023-07-13T07:59:09;5.63;;;2.20;;
53977;SDS011;39886;47.984;-1.586;2023-07-13T08:01:35;7.53;;;2.15;;
53977;SDS011;39886;47.984;-1.586;2023-07-13T08:04:01;8.63;;;2.17;;
53977;SDS011;39886;47.984;-1.586;2023-07-13T08:06:27;7.10;;;2.17;;
53977;SDS011;39886;47.984;-1.586;2023-07-13T08:08:54;3.78;;;1.98;;
53977;SDS011;39886;47.984;-1.586;2023-07-13T08:11:20;4.63;;;2.15;;
53977;SDS011;39886;47.984;-1.586;2023-07-13T08:13:46;6.18;;;2.30;;
53977;SDS011;39886;47.984;-1.586;2023-07-13T08:16:12;8.02;;;2.10;;
53977;SDS011;39886;47.984;-1.586;2023-07-13T08:18:38;9.38;;;2.53;;
53977;SDS011;39886;47.984;-1.586;2023-07-13T08:21:05;10.75;;;2.40;;
53977;SDS011;39886;47.984;-1.586;2023-07-13T08:23:31;9.00;;;2.13;;
53977;SDS011;39886;47.984;-1.586;2023-07-13T08:25:57;6.65;;;2.20;;
53977;SDS011;39886;47.984;-1.586;2023-07-13T08:28:26;8.32;;;2.35;;
53977;SDS011;39886;47.984;-1.586;2023-07-13T08:30:52;7.40;;;2.03;;
53977;SDS011;39886;47.984;-1.586;2023-07-13T08:33:18;9.43;;;2.40;;
53977;SDS011;39886;47.984;-1.586;2023-07-13T08:35:45;9.55;;;2.28;;
53977;SDS011;39886;47.984;-1.586;2023-07-13T08:38:12;6.15;;;2.42;;
53977;SDS011;39886;47.984;-1.586;2023-07-13T08:40:38;8.48;;;2.33;;
53977;SDS011;39886;47.984;-1.586;2023-07-13T08:43:06;8.00;;;2.40;;
53977;SDS011;39886;47.984;-1.586;2023-07-13T08:45:46;8.80;;;2.28;;
53977;SDS011;39886;47.984;-1.586;2023-07-13T08:48:32;9.48;;;1.98;;
53977;SDS011;39886;47.984;-1.586;2023-07-13T08:51:05;6.03;;;2.28;;
53977;SDS011;39886;47.984;-1.586;2023-07-13T08:53:38;7.68;;;3.05;;
53977;SDS011;39886;47.984;-1.586;2023-07-13T08:56:07;7.75;;;2.17;;
53977;SDS011;39886;47.984;-1.586;2023-07-13T08:58:37;5.47;;;2.03;;
53977;SDS011;39886;47.984;-1.586;2023-07-13T09:03:52;4.90;;;1.90;;
53977;SDS011;39886;47.984;-1.586;2023-07-13T09:06:23;9.80;;;2.55;;
53977;SDS011;39886;47.984;-1.586;2023-07-13T09:08:56;7.50;;;2.22;;
53977;SDS011;39886;47.984;-1.586;2023-07-13T09:11:32;6.60;;;1.85;;
53977;SDS011;39886;47.984;-1.586;2023-07-13T09:16:46;7.95;;;2.40;;
53977;SDS011;39886;47.984;-1.586;2023-07-13T09:19:13;5.63;;;2.35;;
53977;SDS011;39886;47.984;-1.586;2023-07-13T09:21:42;8.20;;;2.15;;
53977;SDS011;39886;47.984;-1.586;2023-07-13T09:24:22;7.72;;;1.98;;
53977;SDS011;39886;47.984;-1.586;2023-07-13T09:26:52;5.93;;;1.75;;
53977;SDS011;39886;47.984;-1.586;2023-07-13T09:29:21;3.40;;;1.70;;
53977;SDS011;39886;47.984;-1.586;2023-07-13T09:31:50;9.23;;;2.63;;
53977;SDS011;39886;47.984;-1.586;2023-07-13T09:34:18;10.23;;;2.47;;
53977;SDS011;39886;47.984;-1.586;2023-07-13T09:36:44;5.15;;;2.40;;
53977;SDS011;39886;47.984;-1.586;2023-07-13T09:39:14;6.43;;;2.15;;
53977;SDS011;39886;47.984;-1.586;2023-07-13T09:41:47;8.07;;;2.03;;
53977;SDS011;39886;47.984;-1.586;2023-07-13T09:44:16;22.48;;;5.70;;
53977;SDS011;39886;47.984;-1.586;2023-07-13T09:46:47;9.57;;;2.47;;
53977;SDS011;39886;47.984;-1.586;2023-07-13T09:49:17;15.80;;;3.28;;
53977;SDS011;39886;47.984;-1.586;2023-07-13T09:51:44;17.63;;;3.95;;
53977;SDS011;39886;47.984;-1.586;2023-07-13T09:54:19;11.90;;;2.88;;
53977;SDS011;39886;47.984;-1.586;2023-07-13T09:56:45;13.40;;;3.38;;
53977;SDS011;39886;47.984;-1.586;2023-07-13T09:59:21;5.90;;;2.50;;
53977;SDS011;39886;47.984;-1.586;2023-07-13T10:01:48;13.27;;;3.70;;
53977;SDS011;39886;47.984;-1.586;2023-07-13T10:04:16;26.33;;;5.47;;
53977;SDS011;39886;47.984;-1.586;2023-07-13T10:06:46;8.10;;;2.65;;
53977;SDS011;39886;47.984;-1.586;2023-07-13T10:09:16;12.18;;;4.05;;
53977;SDS011;39886;47.984;-1.586;2023-07-13T10:11:44;11.10;;;3.15;;
53977;SDS011;39886;47.984;-1.586;2023-07-13T10:14:20;11.38;;;3.08;;
53977;SDS011;39886;47.984;-1.586;2023-07-13T10:16:48;12.98;;;2.85;;
53977;SDS011;39886;47.984;-1.586;2023-07-13T10:19:21;6.78;;;2.08;;
53977;SDS011;39886;47.984;-1.586;2023-07-13T10:21:56;4.80;;;2.13;;
53977;SDS011;39886;47.984;-1.586;2023-07-13T10:26:58;13.95;;;2.55;;
53977;SDS011;39886;47.984;-1.586;2023-07-13T10:29:29;6.20;;;2.15;;
53977;SDS011;39886;47.984;-1.586;2023-07-13T10:31:56;8.32;;;2.00;;
53977;SDS011;39886;47.984;-1.586;2023-07-13T10:34:22;4.75;;;1.70;;
53977;SDS011;39886;47.984;-1.586;2023-07-13T10:36:48;6.22;;;2.10;;
53977;SDS011;39886;47.984;-1.586;2023-07-13T10:39:19;8.77;;;1.92;;
53977;SDS011;39886;47.984;-1.586;2023-07-13T10:41:46;3.00;;;1.55;;
53977;SDS011;39886;47.984;-1.586;2023-07-13T10:44:24;3.50;;;1.48;;
53977;SDS011;39886;47.984;-1.586;2023-07-13T10:47:04;4.88;;;1.83;;
53977;SDS011;39886;47.984;-1.586;2023-07-13T10:49:32;4.75;;;1.60;;
53977;SDS011;39886;47.984;-1.586;2023-07-13T10:52:00;5.35;;;1.80;;
53977;SDS011;39886;47.984;-1.586;2023-07-13T10:54:27;4.00;;;1.70;;
53977;SDS011;39886;47.984;-1.586;2023-07-13T10:57:16;4.95;;;1.58;;
53977;SDS011;39886;47.984;-1.586;2023-07-13T10:59:45;2.70;;;1.60;;
53977;SDS011;39886;47.984;-1.586;2023-07-13T11:02:20;2.67;;;1.30;;
53977;SDS011;39886;47.984;-1.586;2023-07-13T11:04:47;3.15;;;1.58;;
53977;SDS011;39886;47.984;-1.586;2023-07-13T11:07:25;3.25;;;1.40;;
53977;SDS011;39886;47.984;-1.586;2023-07-13T11:09:55;5.63;;;1.65;;
53977;SDS011;39886;47.984;-1.586;2023-07-13T11:25:30;2.88;;;1.60;;
53977;SDS011;39886;47.984;-1.586;2023-07-13T11:28:06;3.38;;;1.73;;
53977;SDS011;39886;47.984;-1.586;2023-07-13T11:33:21;3.20;;;1.75;;
53977;SDS011;39886;47.984;-1.586;2023-07-13T11:40:55;3.13;;;1.98;;
53977;SDS011;39886;47.984;-1.586;2023-07-13T11:43:24;1.60;;;1.25;;
53977;SDS011;39886;47.984;-1.586;2023-07-13T11:45:50;2.67;;;1.58;;
53977;SDS011;39886;47.984;-1.586;2023-07-13T11:48:37;4.47;;;1.52;;
53977;SDS011;39886;47.984;-1.586;2023-07-13T11:51:03;1.85;;;1.60;;
53977;SDS011;39886;47.984;-1.586;2023-07-13T11:53:34;4.50;;;1.70;;
53977;SDS011;39886;47.984;-1.586;2023-07-13T11:56:01;4.93;;;1.38;;
53977;SDS011;39886;47.984;-1.586;2023-07-13T11:58:27;2.22;;;1.65;;
53977;SDS011;39886;47.984;-1.586;2023-07-13T12:00:54;4.93;;;1.60;;
53977;SDS011;39886;47.984;-1.586;2023-07-13T12:03:22;2.28;;;1.50;;
53977;SDS011;39886;47.984;-1.586;2023-07-13T12:06:05;6.13;;;1.70;;
53977;SDS011;39886;47.984;-1.586;2023-07-13T12:08:32;3.88;;;1.67;;
53977;SDS011;39886;47.984;-1.586;2023-07-13T12:11:04;3.38;;;1.70;;
53977;SDS011;39886;47.984;-1.586;2023-07-13T12:13:35;4.07;;;1.63;;
53977;SDS011;39886;47.984;-1.586;2023-07-13T12:16:02;3.38;;;1.77;;
53977;SDS011;39886;47.984;-1.586;2023-07-13T12:18:29;6.20;;;1.48;;
53977;SDS011;39886;47.984;-1.586;2023-07-13T12:20:55;3.95;;;1.55;;
53977;SDS011;39886;47.984;-1.586;2023-07-13T12:25:49;3.17;;;1.58;;
53977;SDS011;39886;47.984;-1.586;2023-07-13T12:28:23;5.55;;;1.45;;
53977;SDS011;39886;47.984;-1.586;2023-07-13T12:30:59;4.60;;;1.58;;
53977;SDS011;39886;47.984;-1.586;2023-07-13T12:33:27;4.93;;;1.70;;
53977;SDS011;39886;47.984;-1.586;2023-07-13T12:35:53;7.15;;;1.80;;
53977;SDS011;39886;47.984;-1.586;2023-07-13T12:38:20;3.70;;;1.60;;
53977;SDS011;39886;47.984;-1.586;2023-07-13T12:40:48;5.78;;;2.17;;
53977;SDS011;39886;47.984;-1.586;2023-07-13T12:43:15;4.13;;;1.75;;
53977;SDS011;39886;47.984;-1.586;2023-07-13T12:45:55;5.50;;;1.60;;
53977;SDS011;39886;47.984;-1.586;2023-07-13T12:48:21;4.72;;;1.95;;
53977;SDS011;39886;47.984;-1.586;2023-07-13T12:50:48;4.15;;;2.03;;
53977;SDS011;39886;47.984;-1.586;2023-07-13T12:53:19;11.60;;;1.73;;
53977;SDS011;39886;47.984;-1.586;2023-07-13T12:55:49;5.93;;;1.60;;
53977;SDS011;39886;47.984;-1.586;2023-07-13T12:58:26;5.72;;;1.67;;
53977;SDS011;39886;47.984;-1.586;2023-07-13T13:00:53;5.28;;;1.80;;
53977;SDS011;39886;47.984;-1.586;2023-07-13T13:03:26;5.72;;;1.60;;
53977;SDS011;39886;47.984;-1.586;2023-07-13T13:06:04;3.70;;;1.60;;
53977;SDS011;39886;47.984;-1.586;2023-07-13T13:08:32;5.80;;;1.80;;
53977;SDS011;39886;47.984;-1.586;2023-07-13T13:10:58;3.45;;;1.50;;
53977;SDS011;39886;47.984;-1.586;2023-07-13T13:13:24;6.53;;;1.77;;
53977;SDS011;39886;47.984;-1.586;2023-07-13T13:15:50;3.08;;;2.03;;
53977;SDS011;39886;47.984;-1.586;2023-07-13T13:18:21;5.88;;;1.70;;
53977;SDS011;39886;47.984;-1.586;2023-07-13T13:20:47;3.88;;;1.77;;
53977;SDS011;39886;47.984;-1.586;2023-07-13T13:23:15;4.55;;;1.83;;
53977;SDS011;39886;47.984;-1.586;2023-07-13T13:25:42;5.80;;;1.92;;
53977;SDS011;39886;47.984;-1.586;2023-07-13T13:28:16;3.28;;;1.50;;
53977;SDS011;39886;47.984;-1.586;2023-07-13T13:30:43;7.00;;;1.80;;
53977;SDS011;39886;47.984;-1.586;2023-07-13T13:33:14;3.35;;;1.50;;
53977;SDS011;39886;47.984;-1.586;2023-07-13T13:35:41;7.13;;;2.00;;
53977;SDS011;39886;47.984;-1.586;2023-07-13T13:40:39;5.35;;;1.73;;
53977;SDS011;39886;47.984;-1.586;2023-07-13T13:43:12;4.53;;;1.80;;
53977;SDS011;39886;47.984;-1.586;2023-07-13T13:45:40;6.57;;;1.92;;
53977;SDS011;39886;47.984;-1.586;2023-07-13T13:48:07;3.92;;;1.70;;
53977;SDS011;39886;47.984;-1.586;2023-07-13T13:50:38;5.50;;;2.30;;
53977;SDS011;39886;47.984;-1.586;2023-07-13T13:53:07;4.13;;;1.63;;
53977;SDS011;39886;47.984;-1.586;2023-07-13T13:55:33;3.70;;;1.52;;
53977;SDS011;39886;47.984;-1.586;2023-07-13T13:58:00;5.65;;;1.90;;
53977;SDS011;39886;47.984;-1.586;2023-07-13T14:00:26;5.43;;;1.85;;
53977;SDS011;39886;47.984;-1.586;2023-07-13T14:02:52;7.05;;;2.05;;
53977;SDS011;39886;47.984;-1.586;2023-07-13T14:05:23;2.65;;;1.52;;
53977;SDS011;39886;47.984;-1.586;2023-07-13T14:07:51;5.95;;;1.65;;
53977;SDS011;39886;47.984;-1.586;2023-07-13T14:10:18;5.32;;;1.90;;
53977;SDS011;39886;47.984;-1.586;2023-07-13T14:12:45;3.83;;;1.77;;
53977;SDS011;39886;47.984;-1.586;2023-07-13T14:15:23;4.32;;;1.67;;
53977;SDS011;39886;47.984;-1.586;2023-07-13T14:17:49;3.20;;;1.60;;
53977;SDS011;39886;47.984;-1.586;2023-07-13T14:20:16;2.95;;;1.65;;
53977;SDS011;39886;47.984;-1.586;2023-07-13T14:22:42;4.70;;;1.60;;
53977;SDS011;39886;47.984;-1.586;2023-07-13T14:25:12;3.05;;;1.70;;
53977;SDS011;39886;47.984;-1.586;2023-07-13T14:27:39;4.00;;;1.45;;
53977;SDS011;39886;47.984;-1.586;2023-07-13T14:30:12;3.17;;;1.92;;
53977;SDS011;39886;47.984;-1.586;2023-07-13T14:32:38;3.60;;;1.55;;
53977;SDS011;39886;47.984;-1.586;2023-07-13T14:35:04;4.97;;;1.70;;
53977;SDS011;39886;47.984;-1.586;2023-07-13T14:37:30;4.32;;;1.73;;
53977;SDS011;39886;47.984;-1.586;2023-07-13T14:39:56;2.97;;;1.63;;
53977;SDS011;39886;47.984;-1.586;2023-07-13T14:42:22;4.50;;;1.55;;
53977;SDS011;39886;47.984;-1.586;2023-07-13T14:44:48;5.15;;;1.83;;
53977;SDS011;39886;47.984;-1.586;2023-07-13T14:47:15;3.47;;;2.00;;
53977;SDS011;39886;47.984;-1.586;2023-07-13T14:49:42;4.85;;;1.90;;
53977;SDS011;39886;47.984;-1.586;2023-07-13T14:54:35;6.57;;;1.90;;
53977;SDS011;39886;47.984;-1.586;2023-07-13T14:57:08;5.05;;;1.92;;
53977;SDS011;39886;47.984;-1.586;2023-07-13T14:59:34;3.55;;;1.65;;
53977;SDS011;39886;47.984;-1.586;2023-07-13T15:02:00;5.05;;;2.00;;
53977;SDS011;39886;47.984;-1.586;2023-07-13T15:04:26;3.53;;;1.67;;
53977;SDS011;39886;47.984;-1.586;2023-07-13T15:06:53;6.47;;;1.55;;
53977;SDS011;39886;47.984;-1.586;2023-07-13T15:09:20;2.95;;;1.52;;
53977;SDS011;39886;47.984;-1.586;2023-07-13T15:11:46;2.50;;;1.77;;
53977;SDS011;39886;47.984;-1.586;2023-07-13T15:14:12;3.75;;;1.65;;
53977;SDS011;39886;47.984;-1.586;2023-07-13T15:16:38;3.88;;;1.88;;